Queensborough, Washington
Current Conditions -  °F | °C
As of 4:53 PM on Tuesday 21 Oct 2014 (Local Time) from KPAE Reporting Station
Overcast Overcast  
Wind Chill: 58°   Ceiling: 4500
Heat Index: 58°   Visibility: 10mi
Dew Point: 47°   Wind: 12mph
Humidity: 67%   Direction: 150°SSE
Pressure: 29.88"   Gusts: 21mph
Location:  47.7933°N, 122.207°W
Report Text: KPAE 212353Z 15010G18KT 110V180 10SM BKN045 OVC060 14/08 A2988 RMK AO2 SLP117 60001 T01440083 10156 20133 58007
Loading
Personal Weather Stations






























Interactive Weather Map
Tropical Storm Tracking
New forecast layout! Learn more

10-Day Weather Forecast

Advertisements
Track Severe Weather on mobile